Devon, PA

4:18 AM EST on December 22, 2014 (GMT -0500)
Daylesford Station | Change Station
CLOSE
Current Station
Personal Weather Station
Location: Berwyn, PA
Elevation: 525 ft
Nearby Weather Stations

Elev 525 ft 40.05 °N, 75.46 °W | Updated 1 second ago

Mostly Cloudy
Mostly Cloudy
23.0 °F
Feels Like 23 °F
N
0.0
Wind Variable Wind from NNW
Gusts 0.0 mph

Today
High -- | Low -- °F
--% Chance of Precip.
Yesterday
High -- | Low -- °F
Precip. -- in
7:20 AM 4:40 PM
New Moon, 0% visible
Pressure 30.31 in
Visibility 7.0 miles
Clouds Overcast 2200 ft
Windchill 23 °F
Dew Point 21 °F
Humidity 91%
Rainfall 0.00 in
Snow Depth Not available.
UV 0.0 out of 12
Pollen .10 out of 12
Air Quality Not available.
Flu Activity Not available.
METAR KLOM 220855Z AUTO 00000KT 7SM OVC022 M01/M03 A3031 RMK AO1

More Conditions Fewer Conditions

Pressure 30.31 in
Visibility 7.0 miles
Clouds Overcast 2200 ft
Windchill 23 °F
Dew Point 21 °F
Humidity 91%
Rainfall 0.00 in
Snow Depth Not available.
UV 0.0 out of 12
Pollen .10 out of 12
Air Quality Not available.
Flu Activity Not available.
METAR KLOM 220855Z AUTO 00000KT 7SM OVC022 M01/M03 A3031 RMK AO1

More Conditions Fewer Conditions

10-Day Weather Forecast

Almanac

Astronomy

Dec. 22, 2014 Rise Set
Actual Time
Civil Twilight
Nautical Twilight
Astronomical Twilight
Moon
Length of Visible Light
Length of Day
Tomorrow will be .
, % of the Moon is Illuminated

Today's Extremes

State Highs State Lows

Community

WunderPhotos

Upload Photos

1,779,580 photos uploaded!

WunderBlogs® & News

Nearby

Air Quality

  Air Quality AQ Index Pollutant
Not available.

Snow Depth

Station Depth Elevation

Earthquake Activity

City Distance Mag. Time & Date
Minimum magnitude displayed is 2.5.

Coastal Water Temperatures

Place Temperature

Nearby Weather Stations